Time;durP1;ratioP1;P1;durP2;ratioP2;P2;SDS_P1;SDS_P2;PMS_P1;PMS_P2;Temp;Humidity;BMP_temperature;BMP_pressure;BME280_temperature;BME280_humidity;BME280_pressure;Samples;Min_cycle;Max_cycle;Signal;HPM_P1;HPM_P2
2021/05/27 00:00:10;;;;;;;0.30;0.20;;;;;;;4.70;85.02;90790.25;4901203;29;20035;-87
2021/05/27 00:02:36;;;;;;;0.30;0.30;;;;;;;4.68;85.95;90782.81;4917221;29;20024;-86
2021/05/27 00:05:02;;;;;;;0.50;0.28;;;;;;;4.69;86.17;90784.34;4929621;29;20032;-86
2021/05/27 00:07:27;;;;;;;0.60;0.20;;;;;;;4.84;85.08;90780.63;4901224;29;20024;-87
2021/05/27 00:09:53;;;;;;;1.05;0.10;;;;;;;4.84;85.03;90782.44;4917134;29;20505;-88
2021/05/27 00:12:18;;;;;;;1.30;0.30;;;;;;;4.81;84.98;90780.47;4901036;29;20024;-87
2021/05/27 00:14:43;;;;;;;0.35;0.20;;;;;;;4.75;84.81;90783.16;4901222;29;20399;-87
2021/05/27 00:17:09;;;;;;;0.10;0.10;;;;;;;4.68;85.88;90787.97;4916923;29;20475;-87
2021/05/27 00:19:34;;;;;;;0.20;0.20;;;;;;;4.71;86.67;90792.56;4901300;29;20035;-87
2021/05/27 00:22:00;;;;;;;0.50;0.28;;;;;;;4.71;86.56;90786.63;4900532;29;20031;-87
2021/05/27 00:24:25;;;;;;;1.42;0.30;;;;;;;4.72;86.48;90788.91;4901078;29;20028;-88
2021/05/27 00:26:50;;;;;;;0.30;0.20;;;;;;;4.70;86.03;90790.25;4900947;29;20028;-87
2021/05/27 00:29:16;;;;;;;0.25;0.25;;;;;;;4.69;87.08;90789.50;4900971;29;20020;-88
2021/05/27 00:31:41;;;;;;;0.30;0.20;;;;;;;4.78;86.72;90792.13;4916138;29;20028;-87
2021/05/27 00:34:07;;;;;;;0.57;0.17;;;;;;;4.77;86.06;90786.22;4900966;29;20035;-87
2021/05/27 00:36:32;;;;;;;0.20;0.20;;;;;;;4.87;85.50;90782.59;4900780;29;20051;-88
2021/05/27 00:38:58;;;;;;;0.40;0.30;;;;;;;4.73;85.75;90779.34;4900892;29;20087;-87
2021/05/27 00:41:23;;;;;;;0.43;0.20;;;;;;;4.69;86.05;90784.34;4916133;29;20031;-87
2021/05/27 00:43:48;;;;;;;0.20;0.20;;;;;;;4.59;86.21;90789.72;4900620;29;20024;-88
2021/05/27 00:46:14;;;;;;;0.30;0.20;;;;;;;4.55;86.69;90789.56;4900611;29;20032;-87
2021/05/27 00:48:59;;;;;;;0.28;0.20;;;;;;;4.54;86.15;90788.03;4900574;29;20027;-87
2021/05/27 00:51:28;;;;;;;1.75;0.30;;;;;;;4.62;86.91;90789.16;4902854;29;20024;-87
2021/05/27 00:53:57;;;;;;;0.70;0.40;;;;;;;4.62;86.94;90796.88;4900469;29;20028;-87
2021/05/27 00:56:22;;;;;;;0.73;0.20;;;;;;;4.64;86.55;90804.34;4916085;29;20123;-87
2021/05/27 00:58:48;;;;;;;0.40;0.28;;;;;;;4.52;86.37;90799.69;4916398;29;20039;-87
2021/05/27 01:01:14;;;;;;;0.20;0.20;;;;;;;4.56;86.86;90795.50;4900008;29;20036;-87
2021/05/27 01:03:40;;;;;;;0.30;0.30;;;;;;;4.62;86.45;90796.13;4916486;29;20127;-86
2021/05/27 01:06:05;;;;;;;0.50;0.30;;;;;;;4.55;86.99;90801.69;4916125;29;20091;-87
2021/05/27 01:08:31;;;;;;;0.20;0.20;;;;;;;4.50;86.58;90805.16;4916138;29;20083;-88
2021/05/27 01:10:56;;;;;;;0.57;0.30;;;;;;;4.60;85.39;90803.41;4915540;29;20109;-87
2021/05/27 01:13:22;;;;;;;0.20;0.20;;;;;;;4.43;85.41;90809.22;4900225;29;20036;-88
2021/05/27 01:15:48;;;;;;;0.75;0.20;;;;;;;4.48;84.69;90806.50;4900279;29;20032;-86
2021/05/27 01:18:15;;;;;;;0.32;0.20;;;;;;;4.47;84.88;90807.56;4900138;29;20384;-87
2021/05/27 01:20:42;;;;;;;0.28;0.20;;;;;;;4.21;85.60;90797.81;4915516;29;20402;-86
2021/05/27 01:23:09;;;;;;;0.20;0.20;;;;;;;4.28;86.41;90805.91;4900051;29;20058;-87
2021/05/27 01:25:35;;;;;;;0.75;0.25;;;;;;;4.37;86.11;90798.22;4900246;29;20059;-87
2021/05/27 01:28:00;;;;;;;0.22;0.22;;;;;;;4.36;86.53;90799.28;4899710;29;20465;-85
2021/05/27 01:30:26;;;;;;;0.28;0.28;;;;;;;4.42;86.70;90800.72;4899726;29;20055;-87
2021/05/27 01:32:51;;;;;;;0.60;0.40;;;;;;;4.42;85.91;90794.78;4899696;29;20036;-88
2021/05/27 01:35:20;;;;;;;0.30;0.28;;;;;;;4.31;86.66;90805.34;4915742;29;20032;-87
2021/05/27 01:37:45;;;;;;;0.30;0.30;;;;;;;4.40;86.61;90809.78;4899584;29;20039;-89
2021/05/27 01:40:12;;;;;;;0.47;0.40;;;;;;;4.46;86.55;90798.31;4915041;29;20036;-86
2021/05/27 01:42:38;;;;;;;1.30;0.30;;;;;;;4.45;86.44;90801.94;4915605;29;20479;-87
2021/05/27 01:45:05;;;;;;;0.45;0.35;;;;;;;4.47;86.31;90805.00;4899635;29;20032;-87
2021/05/27 01:47:30;;;;;;;1.88;0.40;;;;;;;4.45;86.28;90807.09;4899467;29;20060;-88
2021/05/27 01:49:56;;;;;;;0.43;0.30;;;;;;;4.45;86.52;90805.28;4899675;29;20109;-88
2021/05/27 01:52:21;;;;;;;0.45;0.30;;;;;;;4.49;86.61;90806.22;4914857;29;20028;-87
2021/05/27 01:54:47;;;;;;;0.50;0.30;;;;;;;4.50;86.41;90807.00;4899478;29;20032;-88
2021/05/27 01:57:12;;;;;;;1.25;0.40;;;;;;;4.55;86.65;90809.44;4915054;29;20406;-86
2021/05/27 01:59:37;;;;;;;0.80;0.40;;;;;;;4.45;84.44;90810.47;4899287;29;20478;-87
2021/05/27 02:02:03;;;;;;;3.55;0.65;;;;;;;4.34;85.57;90814.28;4898881;29;20028;-87
2021/05/27 02:04:28;;;;;;;0.73;0.47;;;;;;;4.27;85.23;90806.19;4915095;29;20032;-87
2021/05/27 02:06:54;;;;;;;0.52;0.50;;;;;;;4.29;86.15;90812.59;4915178;29;20034;-88
2021/05/27 02:09:19;;;;;;;2.03;0.60;;;;;;;4.27;85.71;90816.50;4899267;29;20474;-87
2021/05/27 02:11:48;;;;;;;0.98;0.57;;;;;;;4.23;85.32;90818.91;4934425;23;20065;-87
2021/05/27 02:14:14;;;;;;;0.90;0.60;;;;;;;4.29;85.19;90817.75;4969680;28;20015;-89
2021/05/27 02:16:40;;;;;;;1.45;0.70;;;;;;;4.24;86.18;90817.09;4965344;28;20019;-88
2021/05/27 02:19:06;;;;;;;2.30;0.82;;;;;;;4.21;84.81;90813.31;4946993;28;20038;-87
2021/05/27 02:21:31;;;;;;;1.45;0.63;;;;;;;4.21;84.85;90812.53;4955782;28;20054;-87
2021/05/27 02:23:57;;;;;;;0.73;0.60;;;;;;;4.18;85.23;90815.69;4924121;28;20030;-87
2021/05/27 02:26:23;;;;;;;2.05;0.70;;;;;;;4.21;85.39;90810.72;4938769;28;20401;-87
2021/05/27 02:28:48;;;;;;;0.93;0.70;;;;;;;4.23;85.46;90811.19;4938951;28;20488;-87
2021/05/27 02:31:14;;;;;;;2.75;0.80;;;;;;;4.31;85.99;90815.66;4923537;28;20035;-87
2021/05/27 02:33:40;;;;;;;1.33;0.60;;;;;;;4.22;84.45;90807.06;4923794;28;20028;-85
2021/05/27 02:36:05;;;;;;;0.98;0.50;;;;;;;4.20;83.67;90808.41;4923975;28;20039;-87
2021/05/27 02:38:31;;;;;;;1.00;0.60;;;;;;;4.24;83.97;90810.16;4923883;28;20408;-87
2021/05/27 02:40:56;;;;;;;2.72;0.80;;;;;;;4.17;85.18;90809.78;4923454;28;20026;-86
2021/05/27 02:43:22;;;;;;;1.65;0.60;;;;;;;4.14;84.67;90794.88;4924011;28;20038;-86
2021/05/27 02:45:47;;;;;;;2.88;0.63;;;;;;;4.17;85.69;90809.78;4924064;28;20034;-87
2021/05/27 02:48:12;;;;;;;2.83;0.90;;;;;;;4.19;85.08;90802.50;4923856;28;20018;-86
2021/05/27 02:50:38;;;;;;;0.75;0.50;;;;;;;4.19;85.63;90807.66;4923644;28;20062;-85
2021/05/27 02:53:03;;;;;;;1.20;0.77;;;;;;;4.28;85.63;90816.25;4924059;28;20038;-87
2021/05/27 02:55:29;;;;;;;2.80;0.82;;;;;;;4.22;85.29;90807.06;4939797;28;20038;-87
2021/05/27 02:57:54;;;;;;;1.58;0.70;;;;;;;4.20;85.61;90814.34;4939253;28;20042;-87
2021/05/27 03:00:20;;;;;;;0.80;0.60;;;;;;;4.21;84.71;90810.72;4939490;28;20468;-87
2021/05/27 03:02:45;;;;;;;2.33;0.68;;;;;;;4.13;84.10;90808.81;4923436;28;20034;-86
2021/05/27 03:05:11;;;;;;;2.13;0.75;;;;;;;4.22;85.99;90817.41;4923612;28;20473;-86
2021/05/27 03:07:36;;;;;;;1.13;0.60;;;;;;;4.25;84.23;90810.91;4939659;28;20027;-87
2021/05/27 03:10:02;;;;;;;1.13;0.77;;;;;;;4.05;84.70;90801.78;4923476;28;20035;-86
2021/05/27 03:12:27;;;;;;;2.22;0.73;;;;;;;4.28;82.99;90795.59;4923488;28;20089;-86
2021/05/27 03:14:53;;;;;;;1.20;0.70;;;;;;;4.17;83.11;90804.63;4939474;28;20027;-87
2021/05/27 03:17:18;;;;;;;0.93;0.60;;;;;;;4.00;84.18;90804.47;4939422;28;20039;-86
2021/05/27 03:19:43;;;;;;;2.25;0.52;;;;;;;3.99;82.99;90798.56;4939264;28;20481;-87
2021/05/27 03:22:09;;;;;;;1.15;0.60;;;;;;;3.97;82.68;90799.88;4923188;28;20034;-86
2021/05/27 03:24:34;;;;;;;1.40;0.55;;;;;;;3.89;83.41;90785.09;4939484;28;20022;-86
2021/05/27 03:27:00;;;;;;;1.00;0.70;;;;;;;3.82;85.21;90799.16;4923377;28;20045;-86
2021/05/27 03:29:25;;;;;;;1.48;0.57;;;;;;;3.94;83.59;90801.22;4925267;28;20489;-86
2021/05/27 03:31:50;;;;;;;0.80;0.55;;;;;;;3.76;83.73;90787.41;4942815;28;20401;-87
2021/05/27 03:34:16;;;;;;;1.13;0.60;;;;;;;3.75;84.33;90798.78;4943344;28;20041;-86
2021/05/27 03:36:41;;;;;;;1.48;0.55;;;;;;;3.73;86.18;90798.28;4926998;28;20038;-86
2021/05/27 03:39:07;;;;;;;0.90;0.60;;;;;;;3.81;84.40;90800.19;4943427;28;20030;-86
2021/05/27 03:41:32;;;;;;;2.05;0.68;;;;;;;3.76;83.48;90797.72;4942397;28;20030;-87
2021/05/27 03:43:57;;;;;;;1.67;0.70;;;;;;;3.65;84.78;90791.25;4942828;28;20027;-86
2021/05/27 03:46:23;;;;;;;1.30;0.70;;;;;;;3.67;83.47;90796.88;4927178;28;20038;-87
2021/05/27 03:48:48;;;;;;;1.38;0.65;;;;;;;3.77;84.34;90796.66;4942612;28;20027;-86
2021/05/27 03:51:14;;;;;;;1.20;0.70;;;;;;;3.69;82.90;90794.00;4942467;28;20031;-87
2021/05/27 03:53:39;;;;;;;2.92;0.80;;;;;;;3.67;83.38;90781.41;4942851;28;20068;-87
2021/05/27 03:56:05;;;;;;;1.70;0.85;;;;;;;3.66;83.74;90786.84;4942776;28;20037;-87
2021/05/27 04:01:14;;;;;;;1.43;0.70;;;;;;;3.77;84.83;90783.78;4947572;28;20037;-86
2021/05/27 04:09:07;;;;;;;0.90;0.60;;;;;;;3.69;85.89;90792.19;4951472;28;20070;-88
2021/05/27 04:11:33;;;;;;;3.08;0.75;;;;;;;3.79;85.80;90786.84;4940202;29;20035;-87
2021/05/27 04:13:58;;;;;;;2.25;0.77;;;;;;;3.76;85.25;90790.00;4940576;29;20417;-87
2021/05/27 04:16:23;;;;;;;1.27;0.80;;;;;;;3.76;85.65;90786.66;4908746;29;20490;-87
2021/05/27 04:18:49;;;;;;;1.13;0.70;;;;;;;3.76;85.36;90790.00;4909056;29;20031;-86
2021/05/27 04:21:14;;;;;;;1.02;0.60;;;;;;;3.87;83.65;90798.28;4909143;29;20038;-87
2021/05/27 04:23:40;;;;;;;1.13;0.70;;;;;;;3.91;83.87;90796.66;4909079;29;20058;-85
2021/05/27 04:26:12;;;;;;;1.27;0.75;;;;;;;3.80;85.66;90790.94;4908959;29;20046;-87
2021/05/27 04:28:39;;;;;;;1.10;0.70;;;;;;;3.89;85.49;90792.81;4909410;29;20106;-87
2021/05/27 04:31:09;;;;;;;4.47;0.90;;;;;;;3.91;86.06;90806.97;4909059;29;20055;-87
2021/05/27 04:33:44;;;;;;;1.52;0.88;;;;;;;3.89;86.30;90811.66;4924931;29;20050;-87
2021/05/27 04:36:10;;;;;;;5.50;1.08;;;;;;;3.91;85.92;90813.94;4958582;29;20053;-86
2021/05/27 04:38:35;;;;;;;2.38;0.98;;;;;;;3.94;86.06;90810.78;4925321;29;20038;-87
2021/05/27 04:41:00;;;;;;;6.05;1.60;;;;;;;4.03;85.88;90820.13;4924212;29;20027;-87
2021/05/27 04:43:26;;;;;;;1.95;1.25;;;;;;;3.97;86.31;90821.28;4909094;29;20031;-87
2021/05/27 04:45:51;;;;;;;1.67;0.73;;;;;;;4.00;86.60;90827.69;4909070;29;20051;-87
2021/05/27 04:48:17;;;;;;;2.28;1.10;;;;;;;4.04;86.46;90815.72;4909151;29;20027;-87
2021/05/27 04:50:43;;;;;;;1.27;0.80;;;;;;;4.03;85.64;90824.53;4924846;29;20028;-87
2021/05/27 04:53:09;;;;;;;3.45;1.20;;;;;;;3.93;86.47;90822.16;4909704;29;20446;-87
2021/05/27 04:55:34;;;;;;;1.40;0.80;;;;;;;4.00;86.53;90827.69;4909271;29;20031;-87
2021/05/27 04:57:59;;;;;;;3.35;1.10;;;;;;;4.00;86.69;90830.25;4909711;29;20058;-87
2021/05/27 05:00:25;;;;;;;1.88;1.20;;;;;;;4.08;87.03;90842.47;4909506;29;20031;-87
2021/05/27 05:02:54;;;;;;;1.50;1.10;;;;;;;4.30;86.43;90849.47;4925672;29;20103;-87
2021/05/27 05:05:20;;;;;;;2.05;1.02;;;;;;;4.20;86.77;90850.44;4959404;28;20022;-88
2021/05/27 05:07:46;;;;;;;1.98;1.00;;;;;;;4.21;86.58;90846.06;4944543;28;20389;-87
2021/05/27 05:10:12;;;;;;;1.58;0.80;;;;;;;4.23;85.05;90849.88;4929020;28;20032;-87
2021/05/27 05:12:47;;;;;;;3.78;1.10;;;;;;;4.17;85.60;90845.91;4945185;28;20106;-87
2021/05/27 05:15:22;;;;;;;1.23;0.80;;;;;;;4.28;85.41;90852.34;4947712;28;20030;-87
2021/05/27 05:18:00;;;;;;;2.65;0.80;;;;;;;4.18;86.61;90857.72;4960517;28;20122;-87
2021/05/27 05:20:27;;;;;;;2.35;1.00;;;;;;;4.22;86.90;90852.75;4944801;28;20053;-87
2021/05/27 05:22:53;;;;;;;2.47;0.93;;;;;;;4.23;86.59;90855.03;4947883;29;20442;-87
2021/05/27 05:25:19;;;;;;;3.78;1.02;;;;;;;4.19;87.15;90859.25;4926158;29;20086;-88
2021/05/27 05:27:44;;;;;;;1.58;0.77;;;;;;;4.27;86.82;90862.94;4910633;29;20082;-88
2021/05/27 05:30:10;;;;;;;2.08;0.93;;;;;;;4.37;86.20;90854.25;4926790;29;20027;-88
2021/05/27 05:32:36;;;;;;;1.55;0.90;;;;;;;4.38;85.78;90853.97;4926662;29;20031;-87
2021/05/27 05:35:02;;;;;;;2.08;1.20;;;;;;;4.42;85.31;90859.31;4927716;29;20023;-87
2021/05/27 05:37:28;;;;;;;2.33;1.55;;;;;;;4.34;86.05;90860.75;4927333;29;20083;-87
2021/05/27 05:39:53;;;;;;;2.47;1.30;;;;;;;4.37;86.83;90854.25;4926860;29;20428;-87
2021/05/27 05:42:19;;;;;;;1.80;1.50;;;;;;;4.45;86.44;90850.97;4912173;29;20023;-87
2021/05/27 05:44:44;;;;;;;2.90;1.10;;;;;;;4.40;85.93;90858.81;4927021;29;20038;-87
2021/05/27 05:47:10;;;;;;;2.05;1.17;;;;;;;4.43;85.90;90853.09;4926903;29;20027;-87
2021/05/27 05:49:35;;;;;;;2.13;1.00;;;;;;;4.57;86.56;90858.22;4927099;29;20034;-87
2021/05/27 05:52:00;;;;;;;1.33;0.88;;;;;;;4.52;83.24;90851.31;4926594;29;20027;-87
2021/05/27 05:54:26;;;;;;;1.40;1.00;;;;;;;4.40;82.75;90857.00;4927589;29;20023;-87
2021/05/27 05:56:51;;;;;;;2.58;1.13;;;;;;;4.34;83.35;90847.06;4927584;29;20086;-88
2021/05/27 05:59:17;;;;;;;1.52;0.98;;;;;;;4.68;81.84;90860.25;4928202;29;20031;-87
2021/05/27 06:01:42;;;;;;;2.58;1.20;;;;;;;4.54;83.17;90862.13;4911875;29;20035;-87
2021/05/27 06:04:07;;;;;;;1.30;1.00;;;;;;;4.60;83.52;90868.72;4921320;28;20031;-87
2021/05/27 06:06:33;;;;;;;2.03;1.13;;;;;;;4.54;83.67;90860.31;4948142;28;20030;-87
2021/05/27 06:08:58;;;;;;;1.65;1.05;;;;;;;4.67;83.12;90861.31;4964606;28;20030;-87
2021/05/27 06:11:24;;;;;;;2.70;0.90;;;;;;;4.71;82.67;90870.00;4964440;28;20041;-85
2021/05/27 06:13:49;;;;;;;2.40;1.00;;;;;;;4.58;82.69;90868.22;4933366;28;20057;-87
2021/05/27 06:16:15;;;;;;;5.78;1.27;;;;;;;4.67;83.76;90869.06;4941109;28;20469;-88
2021/05/27 06:18:40;;;;;;;3.63;1.20;;;;;;;4.74;83.53;90864.25;4926210;28;20034;-85
2021/05/27 06:21:06;;;;;;;2.58;1.20;;;;;;;4.81;82.80;90863.09;4924775;28;20555;-87
2021/05/27 06:23:31;;;;;;;2.50;1.30;;;;;;;4.77;83.41;90855.13;4940965;28;20026;-87
2021/05/27 06:25:56;;;;;;;4.28;1.70;;;;;;;4.75;84.21;90860.59;4924500;28;20489;-87
2021/05/27 06:28:22;;;;;;;3.78;2.10;;;;;;;4.76;84.74;90872.44;4940653;28;20019;-87
2021/05/27 06:30:47;;;;;;;3.92;2.50;;;;;;;4.82;84.18;90869.78;4940735;28;20019;-87
2021/05/27 06:33:13;;;;;;;3.75;2.00;;;;;;;4.87;83.25;90888.47;4940829;28;20033;-87
2021/05/27 06:35:38;;;;;;;5.47;1.80;;;;;;;4.86;83.60;90878.44;4940670;28;20027;-85
2021/05/27 06:38:04;;;;;;;2.63;1.40;;;;;;;4.95;82.81;90884.44;4940757;28;20051;-88
2021/05/27 06:40:29;;;;;;;4.07;1.25;;;;;;;5.03;81.11;90874.16;4933808;29;20031;-87
2021/05/27 06:42:55;;;;;;;2.97;1.15;;;;;;;5.01;82.94;90878.84;4947331;28;20030;-87
2021/05/27 06:45:20;;;;;;;2.60;1.20;;;;;;;5.14;81.28;90897.94;4942598;29;20031;-87
2021/05/27 06:47:46;;;;;;;2.38;1.10;;;;;;;4.92;81.52;90890.19;4954050;28;20019;-87
2021/05/27 06:50:12;;;;;;;1.63;1.13;;;;;;;4.91;81.37;90891.25;4920745;29;20034;-87
2021/05/27 06:52:37;;;;;;;2.88;1.02;;;;;;;4.93;82.05;90881.38;4911602;28;20027;-87
2021/05/27 06:55:05;;;;;;;2.60;1.25;;;;;;;4.94;81.52;90882.91;4924248;28;20035;-87
2021/05/27 06:57:30;;;;;;;3.05;1.40;;;;;;;5.07;81.64;90887.25;4941299;28;20034;-86
2021/05/27 06:59:56;;;;;;;2.90;1.25;;;;;;;4.85;81.33;90892.44;4940975;28;20030;-87
2021/05/27 07:02:21;;;;;;;1.77;1.20;;;;;;;4.90;82.54;90893.06;4909364;28;20027;-87
2021/05/27 07:04:46;;;;;;;3.13;1.27;;;;;;;4.93;83.04;90879.56;4923388;28;20438;-87
2021/05/27 07:07:12;;;;;;;3.80;1.38;;;;;;;5.08;81.18;90888.78;4942381;28;20026;-88
2021/05/27 07:09:39;;;;;;;3.47;1.23;;;;;;;5.10;81.67;90894.41;4919713;29;20026;-87
2021/05/27 07:12:08;;;;;;;2.67;1.30;;;;;;;5.13;80.96;90895.66;4943965;29;20126;-87
2021/05/27 07:14:34;;;;;;;2.92;2.08;;;;;;;5.07;82.01;90896.81;4925234;29;20031;-87
2021/05/27 07:17:00;;;;;;;1.20;1.10;;;;;;;5.03;82.15;90892.25;4928363;28;20097;-87
2021/05/27 07:19:26;;;;;;;4.18;1.60;;;;;;;5.08;81.77;90903.50;4944273;28;20182;-87
2021/05/27 07:21:51;;;;;;;3.72;1.40;;;;;;;4.98;81.93;90896.75;4943493;28;20638;-87
2021/05/27 07:24:17;;;;;;;2.22;1.40;;;;;;;5.05;81.83;90899.69;4927373;28;20023;-87
2021/05/27 07:26:43;;;;;;;2.67;1.52;;;;;;;4.93;81.57;90902.81;4944035;28;20029;-86
2021/05/27 07:29:08;;;;;;;1.58;1.20;;;;;;;4.82;81.97;90909.25;4943933;28;20030;-87
2021/05/27 07:31:33;;;;;;;3.35;1.40;;;;;;;5.07;82.22;90917.50;4927467;28;20074;-87
2021/05/27 07:33:59;;;;;;;1.50;1.15;;;;;;;4.90;82.75;90915.53;4927896;28;20031;-87
2021/05/27 07:36:25;;;;;;;2.22;1.00;;;;;;;4.94;82.20;90921.66;4943755;28;20027;-87
2021/05/27 07:38:51;;;;;;;3.38;1.40;;;;;;;4.87;82.36;90924.63;4943692;28;20037;-87
2021/05/27 07:41:16;;;;;;;2.35;1.27;;;;;;;4.95;81.69;90925.78;4958381;28;20477;-87
2021/05/27 07:43:42;;;;;;;2.40;1.20;;;;;;;4.91;80.51;90929.97;4924530;29;20019;-86
2021/05/27 07:46:08;;;;;;;3.25;1.60;;;;;;;5.05;81.90;90946.19;4924585;29;20050;-86
2021/05/27 07:48:33;;;;;;;1.60;1.10;;;;;;;4.94;80.12;90926.81;4930393;29;20011;-87
2021/05/27 07:50:58;;;;;;;2.72;1.10;;;;;;;4.88;81.58;90936.50;4908358;29;20042;-87
2021/05/27 07:53:25;;;;;;;1.85;1.30;;;;;;;4.86;80.93;90932.69;4940714;29;20394;-87
2021/05/27 07:55:50;;;;;;;2.80;1.30;;;;;;;5.00;79.07;90938.56;4911154;29;20055;-87
2021/05/27 07:58:16;;;;;;;2.72;1.30;;;;;;;4.87;80.66;90939.38;4925429;29;20050;-88
2021/05/27 08:00:41;;;;;;;3.25;1.10;;;;;;;4.70;80.23;90938.19;4924684;29;20027;-89
2021/05/27 08:03:07;;;;;;;1.95;1.10;;;;;;;4.90;81.29;90949.13;4926054;28;20194;-87
2021/05/27 08:05:32;;;;;;;1.60;1.00;;;;;;;4.97;80.74;90944.31;4945333;28;20092;-89
2021/05/27 08:07:58;;;;;;;1.10;0.75;;;;;;;5.06;80.43;90942.56;4958913;28;20035;-87
2021/05/27 08:10:23;;;;;;;0.90;0.73;;;;;;;5.00;80.65;90944.50;4943198;28;20046;-87
2021/05/27 08:12:49;;;;;;;2.05;0.90;;;;;;;5.20;77.87;90937.34;4982109;23;20471;-88
2021/05/27 08:15:14;;;;;;;1.85;1.05;;;;;;;5.32;78.78;90945.31;4979168;28;20026;-87
2021/05/27 08:17:39;;;;;;;2.78;0.90;;;;;;;5.54;78.24;90949.69;4976072;28;20035;-86
2021/05/27 08:20:06;;;;;;;1.45;0.77;;;;;;;5.49;76.92;90955.75;4992197;28;20396;-87
2021/05/27 08:22:31;;;;;;;1.33;0.85;;;;;;;5.52;77.00;90959.59;4976527;28;20081;-87
2021/05/27 08:24:57;;;;;;;2.65;0.75;;;;;;;5.35;75.78;90957.66;4975778;28;20026;-87
2021/05/27 08:27:22;;;;;;;2.33;0.80;;;;;;;5.64;77.29;90959.78;4959692;28;20027;-87
2021/05/27 08:29:48;;;;;;;1.77;0.93;;;;;;;5.94;77.89;90960.91;4959895;28;20058;-87
2021/05/27 08:32:13;;;;;;;1.33;0.82;;;;;;;6.20;74.95;90960.97;4976151;28;20035;-87
2021/05/27 08:34:39;;;;;;;1.70;0.77;;;;;;;6.22;75.95;90961.47;4977348;28;20031;-87
2021/05/27 08:37:04;;;;;;;2.22;0.88;;;;;;;6.22;76.04;90969.22;4959475;28;20034;-87
2021/05/27 08:39:30;;;;;;;1.45;0.70;;;;;;;6.21;72.67;90972.84;4976805;28;20037;-87
2021/05/27 08:41:57;;;;;;;0.93;0.68;;;;;;;6.06;76.44;90973.25;4959162;28;20492;-87
2021/05/27 08:44:22;;;;;;;1.65;0.90;;;;;;;6.36;73.53;90976.09;4973959;28;20078;-88
2021/05/27 08:46:48;;;;;;;1.40;0.90;;;;;;;6.39;74.56;90976.25;4957861;28;20019;-87
2021/05/27 08:49:14;;;;;;;1.60;0.90;;;;;;;6.41;74.32;90974.16;4957854;28;20027;-87
2021/05/27 08:51:39;;;;;;;2.42;0.90;;;;;;;6.07;73.35;90979.19;4958127;28;20027;-90
2021/05/27 08:54:05;;;;;;;1.77;1.00;;;;;;;6.31;73.56;90978.84;4975850;28;20026;-87
2021/05/27 08:56:31;;;;;;;2.63;0.88;;;;;;;6.70;75.29;90975.44;4976089;28;20026;-86
2021/05/27 08:58:56;;;;;;;2.65;1.00;;;;;;;6.51;73.09;90986.06;4975947;28;20026;-87
2021/05/27 09:01:23;;;;;;;2.45;0.90;;;;;;;6.65;73.13;90978.94;4959431;28;20401;-87
2021/05/27 09:03:49;;;;;;;1.60;1.02;;;;;;;6.03;74.14;90979.03;4959785;28;20068;-87
2021/05/27 09:06:14;;;;;;;2.97;0.90;;;;;;;6.03;76.74;90981.63;4960278;28;20393;-86
2021/05/27 09:08:40;;;;;;;1.88;1.05;;;;;;;6.38;75.29;90977.34;4944469;28;20539;-86
2021/05/27 09:11:10;;;;;;;3.95;1.33;;;;;;;6.28;75.81;90982.00;4960379;28;20058;-87
2021/05/27 09:13:36;;;;;;;2.33;1.17;;;;;;;6.49;71.90;90983.00;4960523;28;20508;-87
2021/05/27 09:16:09;;;;;;;2.03;1.15;;;;;;;6.78;73.20;90979.09;4944622;28;20026;-86
2021/05/27 09:18:36;;;;;;;4.80;1.58;;;;;;;6.60;74.01;90992.00;4961649;28;20114;-87
2021/05/27 09:21:03;;;;;;;2.60;1.23;;;;;;;6.60;74.18;91004.94;4977684;28;20081;-86
2021/05/27 09:23:28;;;;;;;2.67;1.30;;;;;;;6.74;73.30;90998.91;4976802;28;20535;-87
2021/05/27 09:26:05;;;;;;;2.60;1.30;;;;;;;6.86;73.58;90993.91;4959920;28;20038;-86
2021/05/27 09:28:30;;;;;;;1.58;1.23;;;;;;;7.17;74.34;90991.94;4959773;28;20030;-87
2021/05/27 09:31:04;;;;;;;2.20;1.10;;;;;;;7.35;75.87;90997.13;4972505;28;20077;-87
2021/05/27 09:33:40;;;;;;;2.78;1.70;;;;;;;7.29;73.47;90995.75;4956861;28;20030;-86
2021/05/27 09:36:16;;;;;;;3.35;1.40;;;;;;;7.77;73.42;90994.78;4940732;28;20037;-87
2021/05/27 09:38:44;;;;;;;3.63;1.20;;;;;;;8.02;69.10;90988.81;4972945;28;20029;-85
2021/05/27 09:41:20;;;;;;;3.03;1.55;;;;;;;8.15;73.10;90985.22;4939603;29;20494;-88
2021/05/27 09:43:48;;;;;;;2.38;1.15;;;;;;;8.34;72.75;90992.66;4937056;29;20055;-86
2021/05/27 09:46:13;;;;;;;2.25;0.90;;;;;;;8.03;65.63;90998.09;4937277;29;20078;-87
2021/05/27 09:48:39;;;;;;;1.58;0.95;;;;;;;7.87;65.72;90994.47;4953546;29;20023;-87
2021/05/27 09:51:04;;;;;;;2.35;1.08;;;;;;;8.14;61.55;91009.66;4952913;29;20031;-84
2021/05/27 09:53:33;;;;;;;2.75;1.02;;;;;;;8.33;69.65;90998.91;4937273;29;20161;-86
2021/05/27 09:55:59;;;;;;;2.30;1.00;;;;;;;8.56;65.57;91004.66;4953062;29;20069;-87
2021/05/27 09:58:25;;;;;;;1.50;0.90;;;;;;;8.27;68.76;91014.97;4936792;29;20474;-85
2021/05/27 10:00:51;;;;;;;2.58;0.90;;;;;;;8.22;67.57;91005.53;4952582;29;20106;-86
2021/05/27 10:03:33;;;;;;;3.58;0.93;;;;;;;8.41;67.34;91001.81;4939727;28;20421;-86
2021/05/27 10:06:00;;;;;;;2.40;1.00;;;;;;;8.04;64.46;90999.63;4956377;28;20037;-87
2021/05/27 10:08:26;;;;;;;3.53;1.10;;;;;;;8.11;67.31;91015.47;4940445;28;20018;-87
2021/05/27 10:10:51;;;;;;;1.40;0.88;;;;;;;8.25;61.81;91009.34;4955735;28;20026;-86
2021/05/27 10:13:20;;;;;;;1.95;0.80;;;;;;;8.47;62.57;91016.91;4940069;28;20122;-86
2021/05/27 10:15:46;;;;;;;3.03;1.00;;;;;;;8.44;59.83;91008.97;4956514;28;20063;-86
2021/05/27 10:18:16;;;;;;;1.27;0.90;;;;;;;8.59;64.46;91009.22;4955929;28;20034;-85
2021/05/27 10:20:41;;;;;;;1.60;0.80;;;;;;;8.95;64.97;91007.97;4957207;28;20018;-86
2021/05/27 10:23:07;;;;;;;1.33;0.90;;;;;;;9.18;61.29;91007.66;4972111;28;20031;-87
2021/05/27 10:25:33;;;;;;;2.28;0.90;;;;;;;9.24;61.44;91007.16;4955787;28;20038;-86
2021/05/27 10:28:00;;;;;;;2.83;0.80;;;;;;;9.38;65.29;91012.13;4956104;28;20480;-86
2021/05/27 10:30:26;;;;;;;2.33;0.73;;;;;;;9.19;58.70;91006.63;4955792;28;20046;-87
2021/05/27 10:32:55;;;;;;;2.70;0.80;;;;;;;9.07;59.02;91009.88;4955622;28;20023;-87
2021/05/27 10:35:21;;;;;;;1.27;0.70;;;;;;;8.98;58.88;91009.94;4956325;28;20481;-86
2021/05/27 10:37:50;;;;;;;1.83;0.73;;;;;;;9.16;56.65;90999.44;4971905;28;20085;-86
2021/05/27 10:40:19;;;;;;;1.15;0.70;;;;;;;9.28;56.75;90996.91;4955933;28;20432;-86
2021/05/27 10:42:56;;;;;;;3.08;0.68;;;;;;;8.84;54.07;91004.22;4987692;28;20489;-87
2021/05/27 10:45:24;;;;;;;1.00;0.63;;;;;;;8.84;58.19;91001.63;4987987;28;20034;-86
2021/05/27 10:48:12;;;;;;;1.35;0.70;;;;;;;9.16;58.56;90995.00;4955686;28;20022;-86
2021/05/27 10:51:26;;;;;;;1.15;0.60;;;;;;;9.51;55.42;91003.31;4972554;28;20022;-87
2021/05/27 10:53:41;;;;;;;0.50;0.40;;;;;;;9.19;53.54;91004.78;4971445;28;20027;-85
2021/05/27 10:56:11;;;;;;;2.53;1.02;;;;;;;9.53;53.09;91006.34;4972915;28;20033;-86
2021/05/27 10:58:46;;;;;;;1.70;0.55;;;;;;;9.10;55.01;90998.84;4971490;28;20038;-87
2021/05/27 11:01:15;;;;;;;1.10;0.70;;;;;;;9.32;55.76;90997.78;4987326;28;20077;-85
2021/05/27 11:03:44;;;;;;;3.15;0.80;;;;;;;9.46;57.50;91011.28;4971135;28;20026;-86
2021/05/27 11:06:47;;;;;;;2.00;0.80;;;;;;;9.45;55.72;90998.59;4955803;28;20058;-88
2021/05/27 11:09:23;;;;;;;4.45;0.80;;;;;;;9.87;50.18;91009.72;4971620;28;20549;-86
2021/05/27 11:12:07;;;;;;;1.33;0.50;;;;;;;10.38;60.80;91006.94;4987443;28;20035;-86
2021/05/27 11:14:44;;;;;;;3.05;0.80;;;;;;;10.60;54.82;91011.75;4972546;28;20074;-86
2021/05/27 11:17:15;;;;;;;1.50;0.77;;;;;;;10.23;54.49;91011.66;4971522;28;20030;-85
2021/05/27 11:20:08;;;;;;;2.58;0.60;;;;;;;10.00;53.43;91008.69;4972333;28;20117;-85
2021/05/27 11:22:35;;;;;;;0.65;0.43;;;;;;;9.70;52.87;91008.03;4971316;28;20018;-87
2021/05/27 11:27:55;;;;;;;3.28;0.65;;;;;;;9.97;53.82;91005.97;4972939;28;20085;-85
2021/05/27 11:30:36;;;;;;;1.73;0.80;;;;;;;10.21;54.16;91015.66;4987047;28;20037;-87
2021/05/27 11:33:31;;;;;;;1.10;0.70;;;;;;;10.27;50.44;91004.75;4987541;28;20054;-85
2021/05/27 11:36:04;;;;;;;2.45;0.80;;;;;;;10.16;50.62;91013.28;4968658;28;20042;-86
2021/05/27 11:38:35;;;;;;;1.15;0.70;;;;;;;10.63;60.59;91015.53;4971170;28;20081;-86
2021/05/27 11:41:16;;;;;;;1.38;0.70;;;;;;;11.13;52.71;91007.41;4955912;28;20042;-83
2021/05/27 11:43:43;;;;;;;1.92;0.80;;;;;;;11.00;48.85;91009.25;4971879;28;20501;-86
2021/05/27 11:46:20;;;;;;;1.35;0.70;;;;;;;11.39;54.17;91004.41;4987428;28;20035;-86
2021/05/27 11:51:24;;;;;;;1.00;0.73;;;;;;;11.64;51.23;91009.56;4989220;28;20404;-86
2021/05/27 11:53:58;;;;;;;2.28;0.70;;;;;;;11.31;46.35;90994.88;4958659;28;20029;-87